Rawlins, Wyoming
Current Conditions -  °F | °C
As of 12:53 AM on Friday 24 Oct 2014 (Local Time) from KRWL Reporting Station
Clear Clear  
Wind Chill: 51°   Ceiling: Unl
Heat Index: 51°   Visibility: 10mi
Dew Point: 31°   Wind: 14mph
Humidity: 46%   Direction: 240°WSW
Pressure: 30.19"   Gusts: NA
Location:  41.79°N, 107.23°W
Report Text: KRWL 240653Z AUTO 24012KT 10SM CLR 11/M01 A3019 RMK AO2 SLP157 T01061006 401780033
Loading
Personal Weather Stations






























Interactive Weather Map
Tropical Storm Tracking
New forecast layout! Learn more

10-Day Weather Forecast

Advertisements
Track Severe Weather on mobile